Terminal Aerodrome Forecast
Issued by NWS Duluth, MN

Home | Current Version | Previous Version | Text Only | Print | Product List | Glossary On
Versions: 1 2 3 4 5 6 7 8 9 10 11 12 13 14 15 16 17 18 19 20 21 22 23 24 25 26 27 28 29 30 31
000
FTUS43 KDLH 070533
TAFDLH
TAF
KDLH 070533Z 0706/0806 34009KT P6SM BKN050
     FM070900 35008KT P6SM SCT060
     FM071400 02008KT P6SM FEW050
     FM071800 VRB04KT P6SM SCT050=

USA.gov is the U.S. government's official web portal to all federal, state and local government web resources and services.